sensor_id;sensor_type;location;lat;lon;timestamp;pressure;altitude;pressure_sealevel;temperature;humidity
21574;BME280;10948;48.706;9.258;2023-02-03T00:00:18;99077.81;;;6.23;100.00
21574;BME280;10948;48.706;9.258;2023-02-03T00:02:43;99075.75;;;6.37;100.00
21574;BME280;10948;48.706;9.258;2023-02-03T00:05:08;99070.16;;;6.19;100.00
21574;BME280;10948;48.706;9.258;2023-02-03T00:07:35;99072.75;;;6.17;100.00
21574;BME280;10948;48.706;9.258;2023-02-03T00:10:00;99065.13;;;6.13;100.00
21574;BME280;10948;48.706;9.258;2023-02-03T00:12:29;99058.63;;;6.33;100.00
21574;BME280;10948;48.706;9.258;2023-02-03T00:14:54;99052.31;;;6.08;100.00
21574;BME280;10948;48.706;9.258;2023-02-03T00:17:19;99058.81;;;6.24;100.00
21574;BME280;10948;48.706;9.258;2023-02-03T00:19:44;99052.25;;;6.11;100.00
21574;BME280;10948;48.706;9.258;2023-02-03T00:22:10;99061.81;;;6.08;100.00
21574;BME280;10948;48.706;9.258;2023-02-03T00:24:35;99056.78;;;6.00;100.00
21574;BME280;10948;48.706;9.258;2023-02-03T00:27:00;99058.13;;;6.18;100.00
21574;BME280;10948;48.706;9.258;2023-02-03T00:29:25;99058.38;;;6.06;100.00
21574;BME280;10948;48.706;9.258;2023-02-03T00:31:51;99059.91;;;6.14;100.00
21574;BME280;10948;48.706;9.258;2023-02-03T00:34:17;99059.00;;;6.18;100.00
21574;BME280;10948;48.706;9.258;2023-02-03T00:36:42;99057.47;;;6.08;100.00
21574;BME280;10948;48.706;9.258;2023-02-03T00:39:08;99060.16;;;6.04;100.00
21574;BME280;10948;48.706;9.258;2023-02-03T00:41:33;99052.88;;;6.21;100.00
21574;BME280;10948;48.706;9.258;2023-02-03T00:43:58;99054.00;;;6.09;100.00
21574;BME280;10948;48.706;9.258;2023-02-03T00:46:23;99058.25;;;6.12;100.00
21574;BME280;10948;48.706;9.258;2023-02-03T00:48:48;99056.47;;;6.14;100.00
21574;BME280;10948;48.706;9.258;2023-02-03T00:51:14;99060.69;;;6.19;100.00
21574;BME280;10948;48.706;9.258;2023-02-03T00:53:39;99071.06;;;6.16;100.00
21574;BME280;10948;48.706;9.258;2023-02-03T00:56:04;99081.53;;;6.10;100.00
21574;BME280;10948;48.706;9.258;2023-02-03T00:58:36;99078.00;;;6.14;100.00
21574;BME280;10948;48.706;9.258;2023-02-03T01:01:01;99077.88;;;6.20;100.00
21574;BME280;10948;48.706;9.258;2023-02-03T01:03:26;99084.03;;;6.15;100.00
21574;BME280;10948;48.706;9.258;2023-02-03T01:05:52;99083.72;;;6.28;100.00
21574;BME280;10948;48.706;9.258;2023-02-03T01:08:17;99087.97;;;6.32;100.00
21574;BME280;10948;48.706;9.258;2023-02-03T01:10:42;99079.00;;;6.09;100.00
21574;BME280;10948;48.706;9.258;2023-02-03T01:13:07;99080.50;;;6.19;100.00
21574;BME280;10948;48.706;9.258;2023-02-03T01:15:33;99077.34;;;6.05;100.00
21574;BME280;10948;48.706;9.258;2023-02-03T01:17:58;99084.81;;;6.18;100.00
21574;BME280;10948;48.706;9.258;2023-02-03T01:20:23;99086.75;;;6.09;100.00
21574;BME280;10948;48.706;9.258;2023-02-03T01:22:48;99078.81;;;6.16;100.00
21574;BME280;10948;48.706;9.258;2023-02-03T01:25:14;99059.16;;;6.09;100.00
21574;BME280;10948;48.706;9.258;2023-02-03T01:27:39;99036.44;;;6.23;100.00
21574;BME280;10948;48.706;9.258;2023-02-03T01:30:04;99034.97;;;6.13;100.00
21574;BME280;10948;48.706;9.258;2023-02-03T01:32:29;99028.03;;;6.15;100.00
21574;BME280;10948;48.706;9.258;2023-02-03T01:34:55;99038.09;;;6.27;100.00
21574;BME280;10948;48.706;9.258;2023-02-03T01:37:20;99048.78;;;6.12;100.00
21574;BME280;10948;48.706;9.258;2023-02-03T01:39:45;99054.66;;;6.19;100.00
21574;BME280;10948;48.706;9.258;2023-02-03T01:42:14;99048.56;;;6.21;100.00
21574;BME280;10948;48.706;9.258;2023-02-03T01:49:53;99031.59;;;6.11;100.00
21574;BME280;10948;48.706;9.258;2023-02-03T01:52:20;99029.84;;;6.10;100.00
21574;BME280;10948;48.706;9.258;2023-02-03T01:54:46;99027.13;;;6.18;100.00
21574;BME280;10948;48.706;9.258;2023-02-03T01:57:15;99037.44;;;6.18;100.00
21574;BME280;10948;48.706;9.258;2023-02-03T01:59:41;99038.16;;;6.24;100.00
21574;BME280;10948;48.706;9.258;2023-02-03T02:02:07;99033.28;;;6.12;100.00
21574;BME280;10948;48.706;9.258;2023-02-03T02:04:41;99037.56;;;6.13;100.00
21574;BME280;10948;48.706;9.258;2023-02-03T02:07:07;99028.94;;;6.13;100.00
21574;BME280;10948;48.706;9.258;2023-02-03T02:09:33;99028.00;;;6.17;100.00
21574;BME280;10948;48.706;9.258;2023-02-03T02:11:58;99026.41;;;6.11;100.00
21574;BME280;10948;48.706;9.258;2023-02-03T02:14:23;99022.84;;;6.15;100.00
21574;BME280;10948;48.706;9.258;2023-02-03T02:16:55;99005.03;;;6.03;100.00
21574;BME280;10948;48.706;9.258;2023-02-03T02:19:44;99017.03;;;6.06;100.00
21574;BME280;10948;48.706;9.258;2023-02-03T02:30:10;98959.03;;;5.82;100.00
21574;BME280;10948;48.706;9.258;2023-02-03T02:35:24;98981.78;;;6.03;100.00
21574;BME280;10948;48.706;9.258;2023-02-03T02:45:29;98968.06;;;6.01;100.00
21574;BME280;10948;48.706;9.258;2023-02-03T02:47:58;98965.50;;;6.00;100.00
21574;BME280;10948;48.706;9.258;2023-02-03T02:50:25;98947.53;;;5.95;100.00
21574;BME280;10948;48.706;9.258;2023-02-03T02:52:52;98930.34;;;5.94;100.00
21574;BME280;10948;48.706;9.258;2023-02-03T02:55:23;98938.38;;;5.81;100.00
21574;BME280;10948;48.706;9.258;2023-02-03T02:57:52;98980.31;;;5.93;100.00
21574;BME280;10948;48.706;9.258;2023-02-03T03:00:18;98983.78;;;5.92;100.00
21574;BME280;10948;48.706;9.258;2023-02-03T03:02:44;98974.88;;;6.05;100.00
21574;BME280;10948;48.706;9.258;2023-02-03T03:05:09;98985.44;;;5.95;100.00
21574;BME280;10948;48.706;9.258;2023-02-03T03:07:39;98999.31;;;5.89;100.00
21574;BME280;10948;48.706;9.258;2023-02-03T03:10:08;99001.50;;;6.09;100.00
21574;BME280;10948;48.706;9.258;2023-02-03T03:12:35;99004.97;;;6.08;100.00
21574;BME280;10948;48.706;9.258;2023-02-03T03:15:09;98980.09;;;6.02;100.00
21574;BME280;10948;48.706;9.258;2023-02-03T03:17:46;98978.81;;;6.20;100.00
21574;BME280;10948;48.706;9.258;2023-02-03T03:20:15;98973.88;;;6.11;100.00
21574;BME280;10948;48.706;9.258;2023-02-03T03:22:43;98978.31;;;6.04;100.00
21574;BME280;10948;48.706;9.258;2023-02-03T03:25:14;98975.69;;;6.06;100.00
21574;BME280;10948;48.706;9.258;2023-02-03T03:27:41;98972.19;;;6.08;100.00
21574;BME280;10948;48.706;9.258;2023-02-03T03:30:13;98967.78;;;6.13;100.00
21574;BME280;10948;48.706;9.258;2023-02-03T03:32:41;98965.69;;;6.29;100.00
21574;BME280;10948;48.706;9.258;2023-02-03T03:35:07;98972.97;;;6.13;100.00
21574;BME280;10948;48.706;9.258;2023-02-03T03:40:21;98986.72;;;6.14;100.00
21574;BME280;10948;48.706;9.258;2023-02-03T03:42:53;98990.03;;;6.20;100.00
21574;BME280;10948;48.706;9.258;2023-02-03T03:45:30;99002.22;;;6.14;100.00
21574;BME280;10948;48.706;9.258;2023-02-03T03:50:24;99001.63;;;6.39;100.00
21574;BME280;10948;48.706;9.258;2023-02-03T03:52:51;99024.41;;;6.22;100.00
21574;BME280;10948;48.706;9.258;2023-02-03T03:55:18;99020.16;;;6.20;100.00
21574;BME280;10948;48.706;9.258;2023-02-03T03:57:50;99034.75;;;6.22;100.00
21574;BME280;10948;48.706;9.258;2023-02-03T04:00:19;99034.88;;;6.18;100.00
21574;BME280;10948;48.706;9.258;2023-02-03T04:02:47;99047.63;;;6.25;100.00
21574;BME280;10948;48.706;9.258;2023-02-03T04:05:15;99040.06;;;6.16;100.00
21574;BME280;10948;48.706;9.258;2023-02-03T04:07:44;99048.69;;;6.15;100.00
21574;BME280;10948;48.706;9.258;2023-02-03T04:12:40;99059.53;;;6.32;100.00
21574;BME280;10948;48.706;9.258;2023-02-03T04:15:06;99057.13;;;6.23;100.00
21574;BME280;10948;48.706;9.258;2023-02-03T04:17:31;99045.22;;;6.16;100.00
21574;BME280;10948;48.706;9.258;2023-02-03T04:19:58;99043.25;;;6.27;100.00
21574;BME280;10948;48.706;9.258;2023-02-03T04:22:23;99039.78;;;6.28;100.00
21574;BME280;10948;48.706;9.258;2023-02-03T04:24:48;99035.91;;;6.09;100.00
21574;BME280;10948;48.706;9.258;2023-02-03T04:27:13;99019.91;;;6.32;100.00
21574;BME280;10948;48.706;9.258;2023-02-03T04:29:38;99033.41;;;6.06;100.00
21574;BME280;10948;48.706;9.258;2023-02-03T04:32:04;99030.81;;;6.06;100.00
21574;BME280;10948;48.706;9.258;2023-02-03T04:34:29;99026.41;;;6.11;100.00
21574;BME280;10948;48.706;9.258;2023-02-03T04:36:54;99019.34;;;6.19;100.00
21574;BME280;10948;48.706;9.258;2023-02-03T04:39:20;99019.38;;;6.16;100.00
21574;BME280;10948;48.706;9.258;2023-02-03T04:41:45;99007.03;;;5.92;100.00
21574;BME280;10948;48.706;9.258;2023-02-03T04:44:10;99016.13;;;6.08;100.00
21574;BME280;10948;48.706;9.258;2023-02-03T04:46:35;99019.88;;;5.95;100.00
21574;BME280;10948;48.706;9.258;2023-02-03T04:49:01;99015.44;;;6.02;100.00
21574;BME280;10948;48.706;9.258;2023-02-03T04:51:26;99011.41;;;5.89;100.00
21574;BME280;10948;48.706;9.258;2023-02-03T04:53:51;99012.59;;;6.12;100.00
21574;BME280;10948;48.706;9.258;2023-02-03T04:56:17;99020.50;;;6.06;100.00
21574;BME280;10948;48.706;9.258;2023-02-03T04:58:42;99030.97;;;5.99;100.00
21574;BME280;10948;48.706;9.258;2023-02-03T05:01:07;99025.81;;;5.99;100.00
21574;BME280;10948;48.706;9.258;2023-02-03T05:03:33;99023.41;;;5.91;100.00
21574;BME280;10948;48.706;9.258;2023-02-03T05:05:58;99003.81;;;6.19;100.00
21574;BME280;10948;48.706;9.258;2023-02-03T05:08:23;99001.56;;;6.04;100.00
21574;BME280;10948;48.706;9.258;2023-02-03T05:10:49;99007.63;;;6.03;100.00
21574;BME280;10948;48.706;9.258;2023-02-03T05:13:14;99002.75;;;5.91;100.00
21574;BME280;10948;48.706;9.258;2023-02-03T05:15:39;99010.25;;;6.02;100.00
21574;BME280;10948;48.706;9.258;2023-02-03T05:18:04;99002.50;;;6.02;100.00
21574;BME280;10948;48.706;9.258;2023-02-03T05:20:29;99020.53;;;6.03;100.00
21574;BME280;10948;48.706;9.258;2023-02-03T05:22:55;99024.22;;;5.93;100.00
21574;BME280;10948;48.706;9.258;2023-02-03T05:25:21;99026.72;;;5.96;100.00
21574;BME280;10948;48.706;9.258;2023-02-03T05:27:46;99019.66;;;6.04;100.00
21574;BME280;10948;48.706;9.258;2023-02-03T05:30:12;99016.88;;;6.13;100.00
21574;BME280;10948;48.706;9.258;2023-02-03T05:32:37;99017.13;;;6.03;100.00
21574;BME280;10948;48.706;9.258;2023-02-03T05:35:02;99009.66;;;5.89;100.00
21574;BME280;10948;48.706;9.258;2023-02-03T05:37:27;99025.78;;;6.00;100.00
21574;BME280;10948;48.706;9.258;2023-02-03T05:39:53;99026.59;;;6.02;100.00
21574;BME280;10948;48.706;9.258;2023-02-03T05:42:38;99035.16;;;6.04;100.00
21574;BME280;10948;48.706;9.258;2023-02-03T05:45:03;99045.78;;;5.92;100.00
21574;BME280;10948;48.706;9.258;2023-02-03T05:47:28;99049.09;;;5.97;100.00
21574;BME280;10948;48.706;9.258;2023-02-03T05:49:53;99038.19;;;5.83;100.00
21574;BME280;10948;48.706;9.258;2023-02-03T05:52:19;99026.69;;;5.99;100.00
21574;BME280;10948;48.706;9.258;2023-02-03T05:54:45;99026.16;;;5.84;100.00
21574;BME280;10948;48.706;9.258;2023-02-03T05:57:10;99031.84;;;5.99;100.00
21574;BME280;10948;48.706;9.258;2023-02-03T05:59:36;99033.66;;;5.94;100.00
21574;BME280;10948;48.706;9.258;2023-02-03T06:02:01;99027.47;;;6.03;100.00
21574;BME280;10948;48.706;9.258;2023-02-03T06:04:26;99016.13;;;6.08;100.00
21574;BME280;10948;48.706;9.258;2023-02-03T06:06:51;99013.09;;;5.91;100.00
21574;BME280;10948;48.706;9.258;2023-02-03T06:09:17;99008.72;;;5.93;100.00
21574;BME280;10948;48.706;9.258;2023-02-03T06:11:42;99007.75;;;5.97;100.00
21574;BME280;10948;48.706;9.258;2023-02-03T06:14:07;99018.25;;;5.91;100.00
21574;BME280;10948;48.706;9.258;2023-02-03T06:16:32;99029.56;;;5.84;100.00
21574;BME280;10948;48.706;9.258;2023-02-03T06:18:57;99019.06;;;5.92;100.00
21574;BME280;10948;48.706;9.258;2023-02-03T06:21:23;99003.59;;;5.90;100.00
21574;BME280;10948;48.706;9.258;2023-02-03T06:23:48;99008.03;;;5.85;100.00
21574;BME280;10948;48.706;9.258;2023-02-03T06:26:14;99000.75;;;6.02;100.00
21574;BME280;10948;48.706;9.258;2023-02-03T06:28:39;98999.31;;;5.89;100.00
21574;BME280;10948;48.706;9.258;2023-02-03T06:31:05;99004.44;;;5.92;100.00
21574;BME280;10948;48.706;9.258;2023-02-03T06:33:30;99004.63;;;5.83;100.00
21574;BME280;10948;48.706;9.258;2023-02-03T06:35:56;99011.97;;;6.03;100.00
21574;BME280;10948;48.706;9.258;2023-02-03T06:38:21;99011.22;;;5.96;100.00
21574;BME280;10948;48.706;9.258;2023-02-03T06:40:46;98991.28;;;6.03;100.00
21574;BME280;10948;48.706;9.258;2023-02-03T06:43:12;98997.41;;;5.97;100.00
21574;BME280;10948;48.706;9.258;2023-02-03T06:45:37;98998.31;;;5.96;100.00
21574;BME280;10948;48.706;9.258;2023-02-03T06:48:02;98995.06;;;5.87;100.00
21574;BME280;10948;48.706;9.258;2023-02-03T06:50:28;98995.53;;;6.05;100.00
21574;BME280;10948;48.706;9.258;2023-02-03T06:52:53;98987.38;;;5.85;100.00
21574;BME280;10948;48.706;9.258;2023-02-03T06:55:19;98984.06;;;5.77;100.00
21574;BME280;10948;48.706;9.258;2023-02-03T06:57:45;98967.50;;;5.89;100.00
21574;BME280;10948;48.706;9.258;2023-02-03T07:00:11;98958.47;;;6.06;100.00
21574;BME280;10948;48.706;9.258;2023-02-03T07:02:37;98960.47;;;5.94;100.00
21574;BME280;10948;48.706;9.258;2023-02-03T07:05:03;98970.75;;;5.97;100.00
21574;BME280;10948;48.706;9.258;2023-02-03T07:07:28;98968.41;;;5.86;100.00
21574;BME280;10948;48.706;9.258;2023-02-03T07:09:56;98975.19;;;5.90;100.00
21574;BME280;10948;48.706;9.258;2023-02-03T07:12:21;98978.53;;;5.95;100.00
21574;BME280;10948;48.706;9.258;2023-02-03T07:14:47;98979.56;;;5.87;100.00
21574;BME280;10948;48.706;9.258;2023-02-03T07:17:12;98977.84;;;5.89;100.00
21574;BME280;10948;48.706;9.258;2023-02-03T07:19:37;98977.72;;;5.93;100.00
21574;BME280;10948;48.706;9.258;2023-02-03T07:22:02;98974.94;;;6.02;100.00
21574;BME280;10948;48.706;9.258;2023-02-03T07:24:28;98967.13;;;6.05;100.00
21574;BME280;10948;48.706;9.258;2023-02-03T07:26:53;98965.47;;;6.01;100.00
21574;BME280;10948;48.706;9.258;2023-02-03T07:29:18;98957.81;;;5.98;100.00
21574;BME280;10948;48.706;9.258;2023-02-03T07:31:45;98952.16;;;6.19;100.00
21574;BME280;10948;48.706;9.258;2023-02-03T07:34:10;98967.06;;;6.07;100.00
21574;BME280;10948;48.706;9.258;2023-02-03T07:36:35;98968.94;;;6.02;100.00
21574;BME280;10948;48.706;9.258;2023-02-03T07:39:01;98988.81;;;5.98;100.00
21574;BME280;10948;48.706;9.258;2023-02-03T07:41:26;98992.13;;;6.03;100.00
21574;BME280;10948;48.706;9.258;2023-02-03T07:43:51;98978.25;;;6.07;100.00
21574;BME280;10948;48.706;9.258;2023-02-03T07:46:17;98983.97;;;6.20;100.00
21574;BME280;10948;48.706;9.258;2023-02-03T07:48:42;98988.50;;;6.10;100.00
21574;BME280;10948;48.706;9.258;2023-02-03T07:51:08;98994.47;;;6.14;100.00
21574;BME280;10948;48.706;9.258;2023-02-03T07:53:33;99008.47;;;6.05;100.00
21574;BME280;10948;48.706;9.258;2023-02-03T07:56:01;99015.28;;;6.08;100.00
21574;BME280;10948;48.706;9.258;2023-02-03T07:58:27;99013.53;;;6.10;100.00
21574;BME280;10948;48.706;9.258;2023-02-03T08:00:52;99017.63;;;6.18;100.00
21574;BME280;10948;48.706;9.258;2023-02-03T08:03:17;99017.47;;;6.24;100.00
21574;BME280;10948;48.706;9.258;2023-02-03T08:05:43;99015.69;;;6.28;100.00
21574;BME280;10948;48.706;9.258;2023-02-03T08:08:08;99023.63;;;6.20;100.00
21574;BME280;10948;48.706;9.258;2023-02-03T08:10:34;99047.41;;;6.34;100.00
21574;BME280;10948;48.706;9.258;2023-02-03T08:12:59;99044.97;;;6.28;100.00
21574;BME280;10948;48.706;9.258;2023-02-03T08:15:24;99044.91;;;6.31;100.00
21574;BME280;10948;48.706;9.258;2023-02-03T08:17:50;99041.47;;;6.29;100.00
21574;BME280;10948;48.706;9.258;2023-02-03T08:20:16;99048.44;;;6.27;100.00
21574;BME280;10948;48.706;9.258;2023-02-03T08:22:42;99048.16;;;6.39;100.00
21574;BME280;10948;48.706;9.258;2023-02-03T08:25:08;99053.19;;;6.45;100.00
21574;BME280;10948;48.706;9.258;2023-02-03T08:27:33;99045.25;;;6.53;100.00
21574;BME280;10948;48.706;9.258;2023-02-03T08:29:58;99043.00;;;6.39;100.00
21574;BME280;10948;48.706;9.258;2023-02-03T08:32:24;99048.81;;;6.47;100.00
21574;BME280;10948;48.706;9.258;2023-02-03T08:34:50;99056.19;;;6.64;100.00
21574;BME280;10948;48.706;9.258;2023-02-03T08:37:16;99047.72;;;6.57;100.00
21574;BME280;10948;48.706;9.258;2023-02-03T08:39:42;99042.59;;;6.56;100.00
21574;BME280;10948;48.706;9.258;2023-02-03T08:42:07;99044.78;;;6.72;100.00
21574;BME280;10948;48.706;9.258;2023-02-03T08:44:33;99046.75;;;6.61;100.00
21574;BME280;10948;48.706;9.258;2023-02-03T08:46:59;99040.72;;;6.61;100.00
21574;BME280;10948;48.706;9.258;2023-02-03T08:49:25;99065.22;;;6.46;100.00
21574;BME280;10948;48.706;9.258;2023-02-03T08:51:51;99069.97;;;6.64;100.00
21574;BME280;10948;48.706;9.258;2023-02-03T08:54:18;99066.38;;;6.71;100.00
21574;BME280;10948;48.706;9.258;2023-02-03T08:56:44;99055.50;;;6.92;100.00
21574;BME280;10948;48.706;9.258;2023-02-03T08:59:10;99054.34;;;7.02;100.00
21574;BME280;10948;48.706;9.258;2023-02-03T09:01:36;99039.56;;;7.07;100.00
21574;BME280;10948;48.706;9.258;2023-02-03T09:04:01;99056.25;;;6.96;100.00
21574;BME280;10948;48.706;9.258;2023-02-03T09:06:28;99049.78;;;7.13;100.00
21574;BME280;10948;48.706;9.258;2023-02-03T09:08:55;99064.81;;;6.99;100.00
21574;BME280;10948;48.706;9.258;2023-02-03T09:11:21;99053.78;;;7.25;100.00
21574;BME280;10948;48.706;9.258;2023-02-03T09:13:47;99055.56;;;6.89;100.00
21574;BME280;10948;48.706;9.258;2023-02-03T09:16:13;99055.78;;;7.14;100.00
21574;BME280;10948;48.706;9.258;2023-02-03T09:18:41;99051.31;;;7.20;100.00
21574;BME280;10948;48.706;9.258;2023-02-03T09:21:07;99044.88;;;7.35;100.00
21574;BME280;10948;48.706;9.258;2023-02-03T09:23:32;99031.47;;;7.51;100.00
21574;BME280;10948;48.706;9.258;2023-02-03T09:26:01;99021.34;;;7.42;100.00
21574;BME280;10948;48.706;9.258;2023-02-03T09:28:28;99028.56;;;7.92;100.00
21574;BME280;10948;48.706;9.258;2023-02-03T09:30:53;99018.59;;;8.63;100.00
21574;BME280;10948;48.706;9.258;2023-02-03T09:33:18;99010.69;;;8.92;100.00
21574;BME280;10948;48.706;9.258;2023-02-03T09:35:50;99026.41;;;8.35;100.00
21574;BME280;10948;48.706;9.258;2023-02-03T09:38:16;99036.16;;;8.27;100.00
21574;BME280;10948;48.706;9.258;2023-02-03T09:40:41;99030.38;;;9.23;100.00
21574;BME280;10948;48.706;9.258;2023-02-03T09:45:38;99039.00;;;7.89;100.00
21574;BME280;10948;48.706;9.258;2023-02-03T09:48:05;99042.56;;;8.14;100.00
21574;BME280;10948;48.706;9.258;2023-02-03T09:50:34;99047.31;;;8.00;100.00
21574;BME280;10948;48.706;9.258;2023-02-03T09:53:02;99052.84;;;7.88;100.00
21574;BME280;10948;48.706;9.258;2023-02-03T09:55:34;99053.03;;;7.82;100.00
21574;BME280;10948;48.706;9.258;2023-02-03T09:58:05;99043.44;;;8.15;100.00
21574;BME280;10948;48.706;9.258;2023-02-03T10:01:05;99043.56;;;8.10;100.00
21574;BME280;10948;48.706;9.258;2023-02-03T10:03:35;99028.00;;;8.10;100.00
21574;BME280;10948;48.706;9.258;2023-02-03T10:06:19;99031.31;;;8.15;100.00
21574;BME280;10948;48.706;9.258;2023-02-03T10:18:44;99008.97;;;8.11;100.00
21574;BME280;10948;48.706;9.258;2023-02-03T10:21:32;99021.56;;;8.23;100.00
21574;BME280;10948;48.706;9.258;2023-02-03T10:24:00;99028.66;;;8.72;100.00
21574;BME280;10948;48.706;9.258;2023-02-03T10:26:26;99028.97;;;8.63;100.00
21574;BME280;10948;48.706;9.258;2023-02-03T10:28:56;99031.91;;;8.25;100.00
21574;BME280;10948;48.706;9.258;2023-02-03T10:31:23;99034.00;;;8.41;100.00
21574;BME280;10948;48.706;9.258;2023-02-03T10:33:59;99022.56;;;8.47;100.00
21574;BME280;10948;48.706;9.258;2023-02-03T10:36:38;99026.22;;;8.67;100.00
21574;BME280;10948;48.706;9.258;2023-02-03T10:39:12;99039.00;;;8.47;100.00
21574;BME280;10948;48.706;9.258;2023-02-03T10:41:41;99039.38;;;8.06;100.00
21574;BME280;10948;48.706;9.258;2023-02-03T10:44:07;99043.94;;;7.98;100.00
21574;BME280;10948;48.706;9.258;2023-02-03T10:46:35;99052.97;;;7.85;100.00
21574;BME280;10948;48.706;9.258;2023-02-03T10:49:02;99047.31;;;8.00;100.00
21574;BME280;10948;48.706;9.258;2023-02-03T10:51:37;99030.78;;;8.04;100.00
21574;BME280;10948;48.706;9.258;2023-02-03T10:54:09;99031.50;;;8.09;100.00
21574;BME280;10948;48.706;9.258;2023-02-03T10:56:50;99006.91;;;8.22;100.00
21574;BME280;10948;48.706;9.258;2023-02-03T10:59:25;98988.72;;;8.24;100.00
21574;BME280;10948;48.706;9.258;2023-02-03T11:01:52;98993.66;;;8.04;100.00
21574;BME280;10948;48.706;9.258;2023-02-03T11:04:27;98995.78;;;8.46;100.00
21574;BME280;10948;48.706;9.258;2023-02-03T11:06:54;98992.47;;;9.42;100.00
21574;BME280;10948;48.706;9.258;2023-02-03T11:12:31;98979.13;;;8.79;100.00
21574;BME280;10948;48.706;9.258;2023-02-03T11:14:50;98978.81;;;8.88;100.00
21574;BME280;10948;48.706;9.258;2023-02-03T11:17:19;98985.06;;;8.83;100.00
21574;BME280;10948;48.706;9.258;2023-02-03T11:19:47;98977.72;;;8.69;100.00
21574;BME280;10948;48.706;9.258;2023-02-03T11:22:24;98971.31;;;8.55;100.00
21574;BME280;10948;48.706;9.258;2023-02-03T11:24:50;98978.53;;;8.45;100.00
21574;BME280;10948;48.706;9.258;2023-02-03T11:27:16;98968.63;;;8.30;100.00
21574;BME280;10948;48.706;9.258;2023-02-03T11:29:43;98980.91;;;8.25;100.00
21574;BME280;10948;48.706;9.258;2023-02-03T11:32:19;98977.56;;;8.22;100.00
21574;BME280;10948;48.706;9.258;2023-02-03T11:34:57;98975.66;;;7.99;100.00
21574;BME280;10948;48.706;9.258;2023-02-03T11:37:41;98975.16;;;8.14;100.00
21574;BME280;10948;48.706;9.258;2023-02-03T11:42:36;98962.81;;;8.24;100.00
21574;BME280;10948;48.706;9.258;2023-02-03T11:45:23;98952.59;;;8.45;100.00
21574;BME280;10948;48.706;9.258;2023-02-03T11:52:58;98960.13;;;8.53;100.00
21574;BME280;10948;48.706;9.258;2023-02-03T12:11:07;98921.69;;;8.39;100.00
21574;BME280;10948;48.706;9.258;2023-02-03T12:31:58;98915.16;;;8.28;100.00
21574;BME280;10948;48.706;9.258;2023-02-03T12:36:47;98931.84;;;8.45;100.00
21574;BME280;10948;48.706;9.258;2023-02-03T12:39:18;98921.84;;;8.59;100.00
21574;BME280;10948;48.706;9.258;2023-02-03T12:41:54;98914.47;;;8.47;100.00
21574;BME280;10948;48.706;9.258;2023-02-03T12:44:25;98902.41;;;8.46;100.00
21574;BME280;10948;48.706;9.258;2023-02-03T12:50:08;98887.94;;;8.13;100.00
21574;BME280;10948;48.706;9.258;2023-02-03T13:02:28;98860.31;;;8.12;100.00
21574;BME280;10948;48.706;9.258;2023-02-03T13:05:04;98842.94;;;8.14;100.00
21574;BME280;10948;48.706;9.258;2023-02-03T13:07:38;98835.91;;;8.19;100.00
21574;BME280;10948;48.706;9.258;2023-02-03T13:12:52;98859.06;;;7.98;100.00
21574;BME280;10948;48.706;9.258;2023-02-03T13:15:27;98845.03;;;8.03;100.00
21574;BME280;10948;48.706;9.258;2023-02-03T13:17:59;98854.38;;;8.09;100.00
21574;BME280;10948;48.706;9.258;2023-02-03T13:20:28;98843.69;;;8.18;100.00
21574;BME280;10948;48.706;9.258;2023-02-03T13:22:55;98841.25;;;8.13;100.00
21574;BME280;10948;48.706;9.258;2023-02-03T13:30:37;98839.22;;;8.24;100.00
21574;BME280;10948;48.706;9.258;2023-02-03T13:43:12;98808.75;;;8.03;100.00
21574;BME280;10948;48.706;9.258;2023-02-03T13:48:15;98812.25;;;8.02;100.00
21574;BME280;10948;48.706;9.258;2023-02-03T13:50:42;98807.53;;;8.15;100.00
21574;BME280;10948;48.706;9.258;2023-02-03T13:53:20;98806.56;;;8.17;100.00
21574;BME280;10948;48.706;9.258;2023-02-03T13:56:00;98806.78;;;8.11;100.00
21574;BME280;10948;48.706;9.258;2023-02-03T13:58:30;98798.38;;;8.03;100.00
21574;BME280;10948;48.706;9.258;2023-02-03T14:00:57;98792.63;;;8.21;100.00
21574;BME280;10948;48.706;9.258;2023-02-03T14:05:49;98805.38;;;8.01;100.00
21574;BME280;10948;48.706;9.258;2023-02-03T14:13:34;98797.03;;;8.18;100.00
21574;BME280;10948;48.706;9.258;2023-02-03T14:16:12;98805.06;;;8.10;100.00
21574;BME280;10948;48.706;9.258;2023-02-03T14:18:44;98811.84;;;8.14;100.00
21574;BME280;10948;48.706;9.258;2023-02-03T14:21:11;98812.16;;;8.05;100.00
21574;BME280;10948;48.706;9.258;2023-02-03T14:23:39;98822.22;;;8.14;100.00
21574;BME280;10948;48.706;9.258;2023-02-03T14:26:06;98819.75;;;8.11;100.00
21574;BME280;10948;48.706;9.258;2023-02-03T14:28:40;98822.97;;;8.18;100.00
21574;BME280;10948;48.706;9.258;2023-02-03T14:31:08;98826.47;;;8.17;100.00
21574;BME280;10948;48.706;9.258;2023-02-03T14:38:52;98818.84;;;8.12;100.00
21574;BME280;10948;48.706;9.258;2023-02-03T14:41:25;98819.94;;;8.05;100.00
21574;BME280;10948;48.706;9.258;2023-02-03T14:44:09;98822.38;;;8.10;100.00
21574;BME280;10948;48.706;9.258;2023-02-03T14:46:45;98819.88;;;8.07;100.00
21574;BME280;10948;48.706;9.258;2023-02-03T14:56:46;98834.38;;;8.12;100.00
21574;BME280;10948;48.706;9.258;2023-02-03T14:59:39;98820.94;;;8.01;100.00
21574;BME280;10948;48.706;9.258;2023-02-03T15:04:34;98828.75;;;8.00;100.00
21574;BME280;10948;48.706;9.258;2023-02-03T15:06:59;98831.28;;;8.01;100.00
21574;BME280;10948;48.706;9.258;2023-02-03T15:09:38;98837.41;;;7.99;100.00
21574;BME280;10948;48.706;9.258;2023-02-03T15:12:25;98829.16;;;7.88;100.00
21574;BME280;10948;48.706;9.258;2023-02-03T15:15:10;98845.53;;;7.88;100.00
21574;BME280;10948;48.706;9.258;2023-02-03T15:17:36;98833.19;;;7.96;100.00
21574;BME280;10948;48.706;9.258;2023-02-03T15:20:11;98815.47;;;7.84;100.00
21574;BME280;10948;48.706;9.258;2023-02-03T15:22:39;98812.16;;;7.79;100.00
21574;BME280;10948;48.706;9.258;2023-02-03T15:25:09;98814.78;;;7.78;100.00
21574;BME280;10948;48.706;9.258;2023-02-03T15:27:39;98811.47;;;7.74;100.00
21574;BME280;10948;48.706;9.258;2023-02-03T15:30:15;98804.78;;;7.67;100.00